PABI/DJN METAR and TAF weather

Enter ICAO airport designator
Station Type Date Time Source
PABI METAR 2020/07/14 21:53 UTC NOAA

PABI 142153Z 25007KT 10SM SCT035 SCT065CB BKN100 BKN200 18/10 A2989 RMK AO2 RAB16E20 SLP122 SHRA VC E DSNT N-NE S W VIRGA DSNT ALQDS CB VC E DSNT NE-E W-NW MOV E MDT CU DSNT SW T01830100 PNO $


Station Type Date Time Source
PABI Decoded METAR 2020/07/14 21:53 UTC NOAA

ALLEN ARMY AIRFIELD, AK, United States (PABI) 64-00N 145-43W 391M
Jul 14, 2020 - 05:53 PM EDT / 2020.07.14 2153 UTC
Wind: from the WSW (250 degrees) at 8 MPH (7 KT):0
Visibility: 10 mile(s):0
Sky conditions: mostly cloudy
Weather: Cumulonimbus clouds observed
Temperature: 64.9 F (18.3 C)
Dew Point: 50.0 F (10.0 C)
Relative Humidity: 58%
Pressure (altimeter): 29.89 in. Hg (1012 hPa)
ob: PABI 142153Z 25007KT 10SM SCT035 SCT065CB BKN100 BKN200 18/10 A2989 RMK AO2 RAB16E20 SLP122 SHRA VC E DSNT N-NE S W VIRGA DSNT ALQDS CB VC E DSNT NE-E W-NW MOV E MDT CU DSNT SW T01830100 PNO
cycle: 22

Station Type Date Time Source
PABI TAF 2020/07/14 23:03 UTC NOAA

TAF PABI 132358Z 1323/1504 VRB06KT 9999 SCT055 BKN110 OVC150 QNH2984INS
TEMPO 1400/1402 8000 -TSRA BKN050CB
BECMG 1410/1412 VRB06KT 6000 BR FEW040 BKN065 QNH2991INS
BECMG 1420/1421 VRB06KT 9999 NSW SCT027 BKN065 QNH2987INS TX19/1403Z TN12/1413Z FOR MIL USE ONLY

Example: see airport list